createdAt,value
2022-09-18T00:00:34.795Z,16.90
2022-09-18T00:03:04.304Z,16.60
2022-09-18T00:05:36.912Z,16.50
2022-09-18T00:08:08.081Z,16.30
2022-09-18T00:10:47.194Z,16.20
2022-09-18T00:13:16.973Z,16.50
2022-09-18T00:15:49.543Z,16.50
2022-09-18T00:18:22.784Z,16.60
2022-09-18T00:20:56.431Z,16.60
2022-09-18T00:23:26.790Z,16.60
2022-09-18T00:25:56.255Z,16.70
2022-09-18T00:28:25.831Z,16.60
2022-09-18T00:30:55.512Z,16.60
2022-09-18T00:33:25.048Z,16.50
2022-09-18T00:36:00.751Z,16.50
2022-09-18T00:38:33.265Z,16.50
2022-09-18T00:41:05.732Z,16.50
2022-09-18T00:43:38.082Z,16.40
2022-09-18T00:46:30.495Z,16.40
2022-09-18T00:49:12.239Z,16.30
2022-09-18T00:51:43.755Z,16.40
2022-09-18T00:54:39.144Z,16.30
2022-09-18T00:57:14.599Z,16.20
2022-09-18T00:59:47.059Z,15.60
2022-09-18T01:02:16.994Z,15.60
2022-09-18T01:04:47.501Z,15.90
2022-09-18T01:07:34.540Z,16.00
2022-09-18T01:10:25.348Z,15.60
2022-09-18T01:13:01.373Z,15.80
2022-09-18T01:15:45.926Z,15.30
2022-09-18T01:18:35.987Z,15.10
2022-09-18T01:21:14.569Z,15.30
2022-09-18T01:24:07.367Z,15.40
2022-09-18T01:26:45.743Z,15.60
2022-09-18T01:29:21.189Z,15.40
2022-09-18T01:31:53.798Z,15.50
2022-09-18T01:34:28.677Z,15.60
2022-09-18T01:37:07.226Z,15.40
2022-09-18T01:39:43.353Z,15.60
2022-09-18T01:42:16.184Z,15.30
2022-09-18T01:44:48.121Z,15.20
2022-09-18T01:47:20.663Z,15.40
2022-09-18T01:49:55.576Z,15.50
2022-09-18T01:52:28.130Z,15.60
2022-09-18T01:55:00.647Z,15.60
2022-09-18T01:57:33.979Z,15.50
2022-09-18T02:00:07.944Z,15.50
2022-09-18T02:02:57.500Z,15.40
2022-09-18T02:05:36.532Z,15.30
2022-09-18T02:08:18.141Z,15.40
2022-09-18T02:10:51.612Z,15.40
2022-09-18T02:13:24.365Z,15.50
2022-09-18T02:15:56.887Z,15.40
2022-09-18T02:18:29.511Z,15.20
2022-09-18T02:21:03.220Z,15.20
2022-09-18T02:25:40.595Z,15.20
2022-09-18T02:28:10.705Z,15.20
2022-09-18T02:30:56.338Z,15.20
2022-09-18T02:33:29.677Z,15.00
2022-09-18T02:36:04.831Z,15.10
2022-09-18T02:38:39.020Z,15.10
2022-09-18T02:41:20.363Z,15.00
2022-09-18T02:43:59.228Z,15.00
2022-09-18T02:46:39.677Z,15.10
2022-09-18T02:49:32.342Z,15.10
2022-09-18T02:52:23.039Z,14.90
2022-09-18T02:55:03.199Z,14.90
2022-09-18T02:57:35.729Z,14.80
2022-09-18T03:00:11.135Z,14.80
2022-09-18T03:02:41.645Z,14.70
2022-09-18T03:05:13.119Z,14.80
2022-09-18T03:07:44.425Z,14.70
2022-09-18T03:10:13.953Z,14.50
2022-09-18T03:12:43.416Z,14.50
2022-09-18T03:15:13.020Z,14.40
2022-09-18T03:17:42.533Z,14.50
2022-09-18T03:20:12.088Z,14.50
2022-09-18T03:22:41.605Z,14.40
2022-09-18T03:25:14.711Z,14.40
2022-09-18T03:27:44.217Z,14.30
2022-09-18T03:30:15.475Z,14.30
2022-09-18T03:32:45.136Z,14.10
2022-09-18T03:35:15.327Z,14.30
2022-09-18T03:37:44.762Z,14.30
2022-09-18T03:40:19.355Z,14.20
2022-09-18T03:42:50.931Z,14.20
2022-09-18T03:45:20.587Z,14.30
2022-09-18T03:47:50.091Z,14.30
2022-09-18T03:50:19.592Z,14.20
2022-09-18T03:52:51.596Z,14.10
2022-09-18T03:55:26.225Z,14.10
2022-09-18T03:58:14.146Z,14.10
2022-09-18T04:00:48.017Z,14.10
2022-09-18T04:03:19.239Z,14.10
2022-09-18T04:06:07.828Z,14.00
2022-09-18T04:08:47.983Z,13.90
2022-09-18T04:11:19.115Z,13.90
2022-09-18T04:13:48.541Z,13.80
2022-09-18T04:16:19.491Z,13.80
2022-09-18T04:18:49.010Z,13.80
2022-09-18T04:21:18.509Z,13.80
2022-09-18T04:23:48.338Z,13.70
2022-09-18T04:26:19.531Z,13.70
2022-09-18T04:28:50.665Z,13.70
2022-09-18T04:31:21.205Z,13.80
2022-09-18T04:33:50.844Z,13.50
2022-09-18T04:36:22.094Z,13.50
2022-09-18T04:38:51.570Z,13.60
2022-09-18T04:41:21.961Z,13.80
2022-09-18T04:43:52.166Z,13.70
2022-09-18T04:46:21.945Z,13.60
2022-09-18T04:48:54.341Z,13.70
2022-09-18T04:51:27.011Z,13.60
2022-09-18T04:53:56.799Z,13.50
2022-09-18T04:56:26.305Z,13.60
2022-09-18T04:58:56.661Z,13.60
2022-09-18T05:01:26.234Z,13.40
2022-09-18T05:03:55.907Z,13.30
2022-09-18T05:06:29.957Z,13.30
2022-09-18T05:09:01.302Z,13.30
2022-09-18T05:11:30.849Z,13.30
2022-09-18T05:14:00.417Z,13.40
2022-09-18T05:16:32.101Z,13.40
2022-09-18T05:19:15.130Z,13.20
2022-09-18T05:21:44.726Z,13.20
2022-09-18T05:24:14.623Z,13.20
2022-09-18T05:26:45.712Z,13.30
2022-09-18T05:29:16.610Z,13.30
2022-09-18T05:31:46.306Z,13.20
2022-09-18T05:34:17.654Z,13.30
2022-09-18T05:36:47.544Z,13.30
2022-09-18T05:39:17.874Z,13.30
2022-09-18T05:41:51.265Z,13.30
2022-09-18T05:44:21.196Z,13.30
2022-09-18T05:46:51.043Z,13.20
2022-09-18T05:49:20.661Z,13.20
2022-09-18T05:51:50.166Z,13.10
2022-09-18T05:54:19.683Z,13.10
2022-09-18T05:56:50.873Z,13.20
2022-09-18T05:59:20.287Z,13.10
2022-09-18T06:01:50.211Z,13.00
2022-09-18T06:04:27.507Z,13.20
2022-09-18T06:06:58.705Z,13.20
2022-09-18T06:09:28.623Z,13.20
2022-09-18T06:11:58.713Z,13.20
2022-09-18T06:14:28.226Z,13.30
2022-09-18T06:17:00.258Z,13.20
2022-09-18T06:19:31.786Z,13.30
2022-09-18T06:22:01.289Z,13.30
2022-09-18T06:24:30.959Z,13.30
2022-09-18T06:27:11.132Z,13.40
2022-09-18T06:29:41.076Z,13.50
2022-09-18T06:32:14.923Z,13.60
2022-09-18T06:34:44.514Z,13.50
2022-09-18T06:37:16.721Z,13.60
2022-09-18T06:39:47.930Z,13.70
2022-09-18T06:42:25.020Z,13.60
2022-09-18T06:44:56.499Z,13.70
2022-09-18T06:47:26.100Z,13.90
2022-09-18T06:49:57.014Z,14.00
2022-09-18T06:52:26.576Z,14.10
2022-09-18T06:54:57.623Z,14.10
2022-09-18T06:57:28.812Z,14.20
2022-09-18T06:59:59.127Z,14.30
2022-09-18T07:02:30.192Z,14.30
2022-09-18T07:05:07.309Z,14.70
2022-09-18T07:07:38.439Z,14.80
2022-09-18T07:10:09.314Z,15.00
2022-09-18T07:12:40.549Z,15.10
2022-09-18T07:15:10.717Z,14.80
2022-09-18T07:17:40.145Z,15.20
2022-09-18T07:20:12.112Z,15.50
2022-09-18T07:22:47.306Z,15.60
2022-09-18T07:25:14.839Z,16.10
2022-09-18T07:27:45.189Z,16.00
2022-09-18T07:30:14.428Z,15.30
2022-09-18T07:32:43.603Z,15.60
2022-09-18T07:35:14.347Z,16.10
2022-09-18T07:37:44.120Z,16.40
2022-09-18T07:40:17.604Z,15.80
2022-09-18T07:43:07.614Z,15.70
2022-09-18T07:45:37.411Z,16.00
2022-09-18T07:48:06.805Z,16.60
2022-09-18T07:50:37.331Z,16.20
2022-09-18T07:53:07.469Z,16.80
2022-09-18T07:55:37.833Z,17.40
2022-09-18T07:58:07.423Z,16.70
2022-09-18T08:00:54.104Z,16.10
2022-09-18T08:03:25.675Z,15.80
2022-09-18T08:05:56.042Z,17.40
2022-09-18T08:08:25.943Z,17.30
2022-09-18T08:11:11.649Z,17.80
2022-09-18T08:13:51.270Z,18.20
2022-09-18T08:16:30.409Z,19.10
2022-09-18T08:19:04.179Z,19.80
2022-09-18T08:21:37.698Z,19.40
2022-09-18T08:24:08.040Z,18.30
2022-09-18T08:26:38.897Z,18.50
2022-09-18T08:29:08.323Z,18.80
2022-09-18T08:31:38.513Z,18.60
2022-09-18T08:34:09.892Z,20.20
2022-09-18T08:36:38.536Z,20.90
2022-09-18T08:39:17.795Z,20.30
2022-09-18T08:42:06.285Z,18.10
2022-09-18T08:44:39.506Z,19.10
2022-09-18T08:47:12.398Z,19.60
2022-09-18T08:49:42.556Z,19.40
2022-09-18T08:52:14.988Z,19.40
2022-09-18T08:54:45.427Z,20.50
2022-09-18T08:57:31.662Z,21.40
2022-09-18T09:00:10.620Z,20.80
2022-09-18T09:02:45.038Z,20.60
2022-09-18T09:05:18.553Z,20.50
2022-09-18T09:07:54.815Z,20.00
2022-09-18T09:10:24.984Z,21.10
2022-09-18T09:13:00.003Z,20.80
2022-09-18T09:15:30.954Z,19.90
2022-09-18T09:18:11.894Z,21.00
2022-09-18T09:20:54.361Z,21.50
2022-09-18T09:23:32.472Z,20.70
2022-09-18T09:26:12.811Z,22.20
2022-09-18T09:28:56.685Z,21.40
2022-09-18T09:31:44.650Z,20.80
2022-09-18T09:34:31.071Z,22.20
2022-09-18T09:37:03.597Z,22.40
2022-09-18T09:39:34.185Z,22.50
2022-09-18T09:42:07.987Z,21.30
2022-09-18T09:44:39.242Z,23.00
2022-09-18T09:47:15.272Z,23.30
2022-09-18T09:50:02.622Z,23.30
2022-09-18T09:52:33.221Z,23.40
2022-09-18T09:55:19.247Z,24.20
2022-09-18T09:58:00.099Z,24.30
2022-09-18T10:00:30.669Z,23.30
2022-09-18T10:03:02.541Z,23.30
2022-09-18T10:05:34.376Z,23.00
2022-09-18T10:08:04.619Z,24.60
2022-09-18T10:10:35.837Z,25.20
2022-09-18T10:13:13.121Z,25.00
2022-09-18T10:15:43.910Z,23.70
2022-09-18T10:18:18.648Z,24.10
2022-09-18T10:20:49.157Z,23.40
2022-09-18T10:23:19.561Z,24.20
2022-09-18T10:26:01.746Z,25.30
2022-09-18T10:28:30.949Z,22.80
2022-09-18T10:31:05.456Z,23.00
2022-09-18T10:33:37.076Z,24.50
2022-09-18T10:36:19.629Z,23.40
2022-09-18T10:38:48.518Z,24.70
2022-09-18T10:41:20.644Z,24.10
2022-09-18T10:43:57.386Z,24.50
2022-09-18T10:46:29.720Z,25.00
2022-09-18T10:49:01.616Z,25.80
2022-09-18T10:51:30.353Z,25.60
2022-09-18T10:54:04.315Z,25.00
2022-09-18T10:56:34.701Z,25.80
2022-09-18T10:59:04.866Z,25.00
2022-09-18T11:01:33.527Z,23.60
2022-09-18T11:04:04.363Z,24.70
2022-09-18T11:06:36.519Z,25.50
2022-09-18T11:09:08.690Z,26.10
2022-09-18T11:11:38.458Z,26.90
2022-09-18T11:14:22.341Z,27.30
2022-09-18T11:16:54.204Z,26.40
2022-09-18T11:19:25.603Z,25.10
2022-09-18T11:21:56.096Z,25.10
2022-09-18T11:24:26.592Z,25.70
2022-09-18T11:26:58.102Z,25.80
2022-09-18T11:29:31.203Z,24.50
2022-09-18T11:32:05.246Z,25.20
2022-09-18T11:34:39.611Z,26.30
2022-09-18T11:37:13.087Z,27.40
2022-09-18T11:39:43.299Z,27.50
2022-09-18T11:42:14.732Z,28.10
2022-09-18T11:44:45.676Z,28.50
2022-09-18T11:47:21.570Z,26.60
2022-09-18T11:49:57.522Z,27.20
2022-09-18T11:52:46.792Z,28.30
2022-09-18T11:55:33.798Z,26.90
2022-09-18T11:58:04.121Z,27.90
2022-09-18T12:00:35.867Z,27.40
2022-09-18T12:03:09.373Z,26.50
2022-09-18T12:05:41.012Z,25.80
2022-09-18T12:08:12.795Z,26.60
2022-09-18T12:10:57.093Z,27.70
2022-09-18T12:13:30.499Z,25.20
2022-09-18T12:16:10.344Z,25.90
2022-09-18T12:18:41.595Z,27.40
2022-09-18T12:21:11.755Z,26.40
2022-09-18T12:23:41.523Z,26.90
2022-09-18T12:26:11.675Z,25.70
2022-09-18T12:28:58.841Z,27.20
2022-09-18T12:31:41.190Z,28.60
2022-09-18T12:34:27.586Z,28.90
2022-09-18T12:37:00.510Z,29.10
2022-09-18T12:39:40.371Z,28.50
2022-09-18T12:42:26.833Z,28.30
2022-09-18T12:44:56.955Z,27.70
2022-09-18T12:47:40.191Z,26.60
2022-09-18T12:50:11.311Z,27.00
2022-09-18T12:53:09.010Z,26.20
2022-09-18T12:55:29.569Z,25.80
2022-09-18T12:58:02.618Z,26.60
2022-09-18T13:00:31.867Z,26.40
2022-09-18T13:03:02.023Z,27.50
2022-09-18T13:05:32.166Z,27.60
2022-09-18T13:08:11.901Z,26.10
2022-09-18T13:10:43.254Z,25.20
2022-09-18T13:13:16.958Z,25.80
2022-09-18T13:15:49.866Z,26.20
2022-09-18T13:18:20.678Z,25.70
2022-09-18T13:20:49.240Z,26.40
2022-09-18T13:23:22.404Z,27.10
2022-09-18T13:25:53.427Z,27.60
2022-09-18T13:28:23.763Z,26.30
2022-09-18T13:31:10.891Z,25.90
2022-09-18T13:33:39.795Z,25.70
2022-09-18T13:36:08.383Z,26.60
2022-09-18T13:38:38.016Z,26.00
2022-09-18T13:41:08.106Z,25.10
2022-09-18T13:43:38.267Z,25.70
2022-09-18T13:46:07.759Z,27.00
2022-09-18T13:48:48.787Z,26.10
2022-09-18T13:51:22.266Z,26.10
2022-09-18T13:53:55.415Z,26.00
2022-09-18T13:56:25.493Z,26.70
2022-09-18T13:58:57.437Z,26.00
2022-09-18T14:01:33.493Z,25.80
2022-09-18T14:04:02.243Z,26.10
2022-09-18T14:06:38.690Z,26.20
2022-09-18T14:09:26.856Z,27.30
2022-09-18T14:11:55.482Z,27.20
2022-09-18T14:14:26.095Z,27.50
2022-09-18T14:16:57.962Z,27.50
2022-09-18T14:19:31.220Z,27.60
2022-09-18T14:22:01.462Z,25.50
2022-09-18T14:24:46.703Z,25.50
2022-09-18T14:27:16.922Z,25.90
2022-09-18T14:29:46.191Z,25.30
2022-09-18T14:32:16.772Z,25.10
2022-09-18T14:34:47.019Z,25.30
2022-09-18T14:37:24.009Z,25.50
2022-09-18T14:39:54.885Z,25.40
2022-09-18T14:42:36.988Z,25.80
2022-09-18T14:45:13.165Z,25.70
2022-09-18T14:47:44.077Z,25.60
2022-09-18T14:50:23.513Z,25.20
2022-09-18T14:52:52.351Z,25.50
2022-09-18T14:55:25.645Z,25.80
2022-09-18T14:57:59.085Z,25.20
2022-09-18T15:00:30.825Z,25.40
2022-09-18T15:03:03.965Z,25.50
2022-09-18T15:05:34.184Z,25.10
2022-09-18T15:08:05.321Z,25.10
2022-09-18T15:10:36.097Z,24.80
2022-09-18T15:13:06.419Z,25.10
2022-09-18T15:15:38.332Z,25.30
2022-09-18T15:18:20.476Z,25.40
2022-09-18T15:20:50.839Z,25.30
2022-09-18T15:23:20.648Z,25.30
2022-09-18T15:25:50.806Z,25.20
2022-09-18T15:28:20.811Z,25.30
2022-09-18T15:30:50.921Z,25.10
2022-09-18T15:33:21.222Z,25.30
2022-09-18T15:35:51.334Z,25.20
2022-09-18T15:38:21.499Z,25.40
2022-09-18T15:40:50.736Z,25.30
2022-09-18T15:43:34.539Z,25.10
2022-09-18T15:46:07.622Z,25.10
2022-09-18T15:48:47.699Z,25.40
2022-09-18T15:51:17.968Z,25.30
2022-09-18T15:54:06.015Z,25.20
2022-09-18T15:56:35.343Z,24.90
2022-09-18T15:59:05.507Z,24.70
2022-09-18T16:01:39.800Z,24.70
2022-09-18T16:04:09.939Z,24.50
2022-09-18T16:06:40.265Z,24.40
2022-09-18T16:09:08.829Z,24.50
2022-09-18T16:11:41.671Z,24.50
2022-09-18T16:14:28.198Z,24.50
2022-09-18T16:16:56.825Z,24.70
2022-09-18T16:19:25.463Z,24.80
2022-09-18T16:21:54.036Z,24.60
2022-09-18T16:24:24.195Z,24.70
2022-09-18T16:26:52.825Z,24.70
2022-09-18T16:29:22.634Z,24.70
2022-09-18T16:31:51.315Z,24.40
2022-09-18T16:34:25.068Z,24.50
2022-09-18T16:36:58.347Z,24.40
2022-09-18T16:39:27.282Z,24.50
2022-09-18T16:41:55.844Z,24.30
2022-09-18T16:44:24.898Z,24.20
2022-09-18T16:46:55.298Z,24.20
2022-09-18T16:49:25.456Z,24.20
2022-09-18T16:51:55.818Z,24.30
2022-09-18T16:54:25.266Z,24.10
2022-09-18T16:56:55.365Z,24.10
2022-09-18T16:59:25.749Z,24.00
2022-09-18T17:02:03.851Z,23.80
2022-09-18T17:04:25.469Z,23.80
2022-09-18T17:06:54.126Z,23.80
2022-09-18T17:09:23.994Z,23.70
2022-09-18T17:11:54.351Z,23.80
2022-09-18T17:14:23.575Z,23.70
2022-09-18T17:16:52.297Z,23.50
2022-09-18T17:19:21.223Z,23.40
2022-09-18T17:21:50.271Z,23.40
2022-09-18T17:24:20.480Z,23.30
2022-09-18T17:26:49.088Z,23.30
2022-09-18T17:29:18.516Z,23.20
2022-09-18T17:31:47.086Z,23.10
2022-09-18T17:34:16.710Z,23.00
2022-09-18T17:36:46.080Z,22.90
2022-09-18T17:39:16.647Z,22.90
2022-09-18T17:41:46.047Z,22.80
2022-09-18T17:44:15.589Z,22.70
2022-09-18T17:46:44.491Z,22.70
2022-09-18T17:49:13.123Z,22.60
2022-09-18T17:51:41.795Z,22.60
2022-09-18T17:54:10.633Z,22.50
2022-09-18T17:56:39.257Z,22.40
2022-09-18T17:59:09.782Z,22.30
2022-09-18T18:01:41.733Z,22.20
2022-09-18T18:04:10.372Z,22.20
2022-09-18T18:06:38.982Z,22.10
2022-09-18T18:09:09.890Z,22.00
2022-09-18T18:11:38.694Z,22.00
2022-09-18T18:14:07.602Z,21.90
2022-09-18T18:16:38.371Z,21.90
2022-09-18T18:19:10.274Z,21.70
2022-09-18T18:21:41.321Z,21.70
2022-09-18T18:24:15.003Z,21.60
2022-09-18T18:26:44.613Z,21.50
2022-09-18T18:29:14.779Z,21.50
2022-09-18T18:31:43.673Z,21.40
2022-09-18T18:34:14.202Z,21.30
2022-09-18T18:36:42.836Z,21.30
2022-09-18T18:39:13.107Z,21.10
2022-09-18T18:41:43.413Z,21.10
2022-09-18T18:44:13.220Z,21.00
2022-09-18T18:46:41.840Z,20.80
2022-09-18T18:49:12.432Z,20.80
2022-09-18T18:51:45.880Z,20.80
2022-09-18T18:54:16.227Z,20.70
2022-09-18T18:56:45.003Z,20.60
2022-09-18T18:59:15.062Z,20.60
2022-09-18T19:01:44.338Z,20.50
2022-09-18T19:04:14.152Z,20.40
2022-09-18T19:06:44.634Z,20.50
2022-09-18T19:09:19.291Z,20.30
2022-09-18T19:11:51.667Z,20.30
2022-09-18T19:14:25.963Z,20.30
2022-09-18T19:16:54.870Z,20.20
2022-09-18T19:19:25.205Z,20.20
2022-09-18T19:21:53.871Z,20.10
2022-09-18T19:24:22.844Z,20.10
2022-09-18T19:26:51.461Z,20.10
2022-09-18T19:29:21.846Z,20.00
2022-09-18T19:31:51.086Z,19.90
2022-09-18T19:34:20.889Z,19.80
2022-09-18T19:36:51.121Z,19.70
2022-09-18T19:39:21.666Z,19.60
2022-09-18T19:42:04.676Z,19.60
2022-09-18T19:44:46.757Z,19.60
2022-09-18T19:47:19.762Z,19.60
2022-09-18T19:49:49.774Z,19.50
2022-09-18T19:52:22.896Z,19.40
2022-09-18T19:54:53.450Z,19.30
2022-09-18T19:57:24.026Z,19.30
2022-09-18T19:59:57.448Z,19.30
2022-09-18T20:02:26.957Z,19.20
2022-09-18T20:04:56.634Z,19.20
2022-09-18T20:07:25.442Z,19.10
2022-09-18T20:09:54.226Z,19.00
2022-09-18T20:12:22.804Z,18.90
2022-09-18T20:14:51.403Z,19.00
2022-09-18T20:17:20.064Z,18.90
2022-09-18T20:19:48.704Z,19.00
2022-09-18T20:22:17.297Z,18.50
2022-09-18T20:24:45.868Z,18.70
2022-09-18T20:27:16.034Z,18.70
2022-09-18T20:29:44.784Z,18.70
2022-09-18T20:32:13.416Z,18.70
2022-09-18T20:34:45.902Z,18.60
2022-09-18T20:37:12.890Z,18.70
2022-09-18T20:39:41.447Z,18.50
2022-09-18T20:42:10.020Z,18.50
2022-09-18T20:44:38.613Z,18.40
2022-09-18T20:47:07.485Z,18.40
2022-09-18T20:49:38.031Z,18.40
2022-09-18T20:52:10.318Z,18.30
2022-09-18T20:54:39.592Z,18.40
2022-09-18T20:57:09.129Z,18.30
2022-09-18T20:59:40.012Z,18.10
2022-09-18T21:02:09.132Z,18.20
2022-09-18T21:04:39.428Z,18.10
2022-09-18T21:07:08.054Z,18.10
2022-09-18T21:09:36.612Z,18.10
2022-09-18T21:12:06.623Z,18.00
2022-09-18T21:14:36.847Z,17.90
2022-09-18T21:17:08.591Z,18.00
2022-09-18T21:19:38.595Z,17.80
2022-09-18T21:22:07.221Z,17.80
2022-09-18T21:24:38.202Z,17.60
2022-09-18T21:27:06.818Z,17.70
2022-09-18T21:29:35.935Z,17.60
2022-09-18T21:32:04.605Z,17.60
2022-09-18T21:34:36.614Z,17.60
2022-09-18T21:37:08.517Z,17.60
2022-09-18T21:39:41.880Z,17.60
2022-09-18T21:42:10.956Z,17.50
2022-09-18T21:44:39.592Z,17.10
2022-09-18T21:47:10.631Z,17.30
2022-09-18T21:49:39.465Z,17.20
2022-09-18T21:52:09.288Z,17.20
2022-09-18T21:54:37.852Z,17.20
2022-09-18T21:57:07.370Z,17.20
2022-09-18T21:59:36.510Z,17.30
2022-09-18T22:02:06.477Z,17.20
2022-09-18T22:04:35.145Z,17.20
2022-09-18T22:07:04.456Z,17.20
2022-09-18T22:09:34.475Z,17.10
2022-09-18T22:12:03.142Z,17.10
2022-09-18T22:14:32.571Z,17.00
2022-09-18T22:17:05.943Z,17.00
2022-09-18T22:19:38.069Z,17.00
2022-09-18T22:22:04.811Z,16.90
2022-09-18T22:24:33.466Z,16.90
2022-09-18T22:27:04.820Z,16.80
2022-09-18T22:29:37.508Z,16.80
2022-09-18T22:32:07.113Z,16.70
2022-09-18T22:34:35.695Z,16.70
2022-09-18T22:37:05.039Z,16.80
2022-09-18T22:39:33.725Z,16.70
2022-09-18T22:42:02.573Z,16.60
2022-09-18T22:44:31.918Z,16.60
2022-09-18T22:47:02.372Z,16.60
2022-09-18T22:49:31.055Z,16.60
2022-09-18T22:51:59.620Z,16.60
2022-09-18T22:54:28.642Z,16.60
2022-09-18T22:56:57.270Z,16.50
2022-09-18T22:59:27.448Z,16.60
2022-09-18T23:02:00.478Z,16.50
2022-09-18T23:04:31.012Z,16.40
2022-09-18T23:06:59.694Z,16.50
2022-09-18T23:09:28.266Z,16.30
2022-09-18T23:11:57.881Z,16.30
2022-09-18T23:14:27.994Z,16.30
2022-09-18T23:16:57.467Z,16.20
2022-09-18T23:19:27.450Z,16.00
2022-09-18T23:21:56.354Z,16.10
2022-09-18T23:24:25.492Z,16.10
2022-09-18T23:26:55.651Z,16.10
2022-09-18T23:29:25.978Z,16.20
2022-09-18T23:31:56.901Z,16.20
2022-09-18T23:34:29.320Z,16.20
2022-09-18T23:36:58.517Z,16.20
2022-09-18T23:39:29.091Z,16.10
2022-09-18T23:41:59.590Z,16.00
2022-09-18T23:44:30.154Z,16.10
2022-09-18T23:47:00.356Z,15.90
2022-09-18T23:49:29.488Z,15.90
2022-09-18T23:51:59.663Z,15.90
2022-09-18T23:54:29.567Z,16.00
2022-09-18T23:56:58.221Z,15.90
2022-09-18T23:59:26.926Z,15.90
